Brewster, Nebraska
Current Conditions -  °F | °C
As of 12:35 PM on Thursday 30 Oct 2014 (Local Time) from KTIF Reporting Station
Clear Clear  
Wind Chill: 59°   Ceiling: Unl
Heat Index: 59°   Visibility: 10mi
Dew Point: 33°   Wind: 23mph
Humidity: 38%   Direction: 340°NNW
Pressure: 30.26"   Gusts: 31mph
Location:  41.94°N, 99.86°W
Report Text: KTIF 301735Z AUTO 34020G27KT 10SM CLR 15/01 A3026 RMK AO2 T01500007
Loading
Personal Weather Stations






























Interactive Weather Map
Tropical Storm Tracking
New forecast layout! Learn more

10-Day Weather Forecast

Advertisements
Track Severe Weather on mobile